Time;durP1;ratioP1;P1;durP2;ratioP2;P2;SDS_P1;SDS_P2;PMS_P1;PMS_P2;Temp;Humidity;BMP_temperature;BMP_pressure;BME280_temperature;BME280_humidity;BME280_pressure;Samples;Min_cycle;Max_cycle;Signal;HPM_P1;HPM_P2
2023/07/14 00:01:21;;;;;;;8.75;5.45;;;16.40;99.90;;;;;;5073498;28;20044;-55
2023/07/14 00:03:48;;;;;;;10.32;5.40;;;16.30;99.90;;;;;;5074798;28;20047;-55
2023/07/14 00:06:15;;;;;;;9.63;5.05;;;16.30;99.90;;;;;;5074958;28;20129;-55
2023/07/14 00:08:42;;;;;;;8.25;5.05;;;16.30;99.90;;;;;;5074869;28;20044;-55
2023/07/14 00:11:16;;;;;;;10.75;5.20;;;16.30;99.90;;;;;;5065259;28;20029;-55
2023/07/14 00:13:42;;;;;;;9.40;5.75;;;16.20;99.90;;;;;;5074674;28;20036;-56
2023/07/14 00:16:19;;;;;;;10.77;5.30;;;16.20;99.90;;;;;;5074607;28;20044;-55
2023/07/14 00:18:45;;;;;;;11.93;5.43;;;16.20;99.90;;;;;;5074394;28;20072;-55
2023/07/14 00:21:17;;;;;;;10.05;5.20;;;16.10;99.90;;;;;;5074487;28;20041;-55
2023/07/14 00:23:43;;;;;;;10.23;5.20;;;16.10;99.90;;;;;;5074744;28;20143;-56
2023/07/14 00:26:15;;;;;;;8.93;5.50;;;16.10;99.90;;;;;;5074320;28;20041;-55
2023/07/14 00:28:43;;;;;;;10.57;5.35;;;16.10;99.90;;;;;;5074329;28;20036;-56
2023/07/14 00:31:14;;;;;;;9.05;5.65;;;16.10;99.90;;;;;;5074565;28;20048;-56
2023/07/14 00:33:41;;;;;;;10.73;5.80;;;16.10;99.90;;;;;;5074673;28;20383;-56
2023/07/14 00:36:07;;;;;;;10.52;5.85;;;16.20;99.90;;;;;;5074399;28;20036;-55
2023/07/14 00:38:36;;;;;;;12.48;5.95;;;16.20;99.90;;;;;;5074056;28;20040;-55
2023/07/14 00:41:07;;;;;;;11.93;6.35;;;16.10;99.90;;;;;;5070633;28;20051;-56
2023/07/14 00:43:34;;;;;;;11.40;5.82;;;16.10;99.90;;;;;;5054272;28;20033;-55
2023/07/14 00:46:01;;;;;;;11.25;6.18;;;16.10;99.90;;;;;;5057557;28;20120;-55
2023/07/14 00:48:29;;;;;;;9.60;5.95;;;16.10;99.90;;;;;;5067648;28;20481;-57
2023/07/14 00:51:01;;;;;;;10.83;6.00;;;16.10;99.90;;;;;;5061638;28;20076;-55
2023/07/14 00:53:38;;;;;;;9.45;6.88;;;16.10;99.90;;;;;;5073109;28;20060;-55
2023/07/14 00:56:10;;;;;;;13.85;6.38;;;16.00;99.90;;;;;;5074072;28;20052;-55
2023/07/14 00:58:37;;;;;;;10.27;5.88;;;16.00;99.90;;;;;;5068121;28;20044;-55
2023/07/14 01:01:10;;;;;;;7.82;5.97;;;16.00;99.90;;;;;;5065670;28;20103;-56
2023/07/14 01:03:44;;;;;;;10.50;6.63;;;16.00;99.90;;;;;;5073641;28;20043;-56
2023/07/14 01:06:39;;;;;;;8.43;6.13;;;15.90;99.90;;;;;;5073827;28;20086;-56
2023/07/14 01:09:10;;;;;;;10.98;7.70;;;15.90;99.90;;;;;;5060390;28;20044;-56
2023/07/14 01:11:41;;;;;;;10.32;6.72;;;15.80;99.90;;;;;;5073564;28;20041;-56
2023/07/14 01:14:13;;;;;;;12.10;7.15;;;15.80;99.90;;;;;;5073817;28;20036;-56
2023/07/14 01:16:40;;;;;;;11.18;7.00;;;15.90;99.90;;;;;;5060022;28;20487;-56
2023/07/14 01:19:18;;;;;;;11.30;7.53;;;15.90;99.90;;;;;;5073396;28;20098;-56
2023/07/14 01:21:48;;;;;;;13.45;7.43;;;15.80;99.90;;;;;;5073350;28;20041;-56
2023/07/14 01:24:21;;;;;;;12.30;8.27;;;15.70;99.90;;;;;;5072374;28;20120;-56
2023/07/14 01:27:07;;;;;;;10.68;7.88;;;15.70;99.90;;;;;;5073534;28;20502;-56
2023/07/14 01:29:34;;;;;;;13.15;8.30;;;15.80;99.90;;;;;;5073392;28;20036;-56
2023/07/14 01:32:01;;;;;;;11.20;7.80;;;15.70;99.90;;;;;;5073411;28;20033;-56
2023/07/14 01:34:28;;;;;;;14.43;8.05;;;15.70;99.90;;;;;;5073061;28;20508;-57
2023/07/14 01:36:58;;;;;;;12.88;8.07;;;15.70;99.90;;;;;;5073221;28;20075;-56
2023/07/14 01:39:25;;;;;;;12.25;7.63;;;15.70;99.90;;;;;;5073071;28;20037;-56
2023/07/14 01:41:51;;;;;;;12.18;8.23;;;15.70;99.90;;;;;;5071502;28;20040;-56
2023/07/14 01:44:20;;;;;;;12.45;8.27;;;15.60;99.90;;;;;;5072742;28;20128;-55
2023/07/14 01:46:47;;;;;;;10.70;7.82;;;15.60;99.90;;;;;;5073152;28;20040;-55
2023/07/14 01:49:38;;;;;;;10.98;8.73;;;15.50;99.90;;;;;;5072282;28;20048;-55
2023/07/14 01:52:08;;;;;;;9.77;7.90;;;15.50;99.90;;;;;;5062144;28;20054;-56
2023/07/14 01:54:40;;;;;;;12.25;7.93;;;15.50;99.90;;;;;;5072321;28;20052;-56
2023/07/14 01:57:12;;;;;;;10.80;8.32;;;15.50;99.90;;;;;;5072886;28;20076;-56
2023/07/14 01:59:43;;;;;;;16.63;9.30;;;15.50;99.90;;;;;;5055692;28;20453;-56
2023/07/14 02:02:13;;;;;;;15.60;9.30;;;15.40;99.90;;;;;;5072479;28;20391;-56
2023/07/14 02:04:40;;;;;;;9.35;7.38;;;15.40;99.90;;;;;;5072317;28;20044;-55
2023/07/14 02:07:12;;;;;;;11.50;8.27;;;15.40;99.90;;;;;;5072376;28;20042;-55
2023/07/14 02:09:38;;;;;;;14.45;10.15;;;15.40;99.90;;;;;;5072644;28;20086;-55
2023/07/14 02:12:05;;;;;;;12.82;8.68;;;15.40;99.90;;;;;;5072503;28;20039;-56
2023/07/14 02:14:45;;;;;;;11.93;9.88;;;15.40;99.90;;;;;;5072584;28;20036;-55
2023/07/14 02:17:25;;;;;;;15.70;10.00;;;15.40;99.90;;;;;;5072137;28;20478;-56
2023/07/14 02:19:52;;;;;;;15.90;11.30;;;15.40;99.90;;;;;;5072435;28;20033;-55
2023/07/14 02:22:19;;;;;;;14.35;9.32;;;15.30;99.90;;;;;;5072142;28;20029;-56
2023/07/14 02:24:46;;;;;;;13.38;10.85;;;15.30;99.90;;;;;;5072137;28;20091;-55
2023/07/14 02:27:12;;;;;;;12.55;9.55;;;15.30;99.90;;;;;;5071989;28;20068;-55
2023/07/14 02:29:38;;;;;;;14.05;10.73;;;15.30;99.90;;;;;;5072136;28;20470;-55
2023/07/14 02:32:10;;;;;;;15.65;10.10;;;15.30;99.90;;;;;;5072321;28;20094;-56
2023/07/14 02:34:40;;;;;;;13.10;11.10;;;15.30;99.90;;;;;;5071153;28;20097;-55
2023/07/14 02:40:50;;;;;;;13.60;11.65;;;15.30;99.90;;;;;;5072225;28;20094;-56
2023/07/14 02:43:17;;;;;;;13.20;11.80;;;15.30;99.90;;;;;;5058555;28;20047;-56
2023/07/14 02:45:58;;;;;;;13.52;10.45;;;15.40;99.90;;;;;;5071890;28;20037;-55
2023/07/14 02:48:41;;;;;;;12.35;11.02;;;15.40;99.90;;;;;;5057627;28;20044;-55
2023/07/14 02:51:07;;;;;;;14.82;10.90;;;15.40;99.90;;;;;;5057779;28;20051;-56
2023/07/14 02:53:32;;;;;;;14.63;11.85;;;15.40;99.90;;;;;;5071985;28;20055;-56
2023/07/14 02:55:58;;;;;;;14.25;11.65;;;15.40;99.90;;;;;;5072227;28;20064;-56
2023/07/14 02:58:24;;;;;;;19.58;11.38;;;15.50;99.90;;;;;;5071971;28;20048;-56
2023/07/14 03:00:50;;;;;;;11.45;10.30;;;15.40;99.90;;;;;;5071827;28;20037;-55
2023/07/14 03:03:17;;;;;;;13.80;10.75;;;15.40;99.90;;;;;;5071351;28;20045;-56
2023/07/14 03:05:43;;;;;;;11.93;10.75;;;15.30;99.90;;;;;;5071954;28;20844;-55
2023/07/14 03:08:14;;;;;;;17.55;12.82;;;15.40;99.90;;;;;;5071748;28;20040;-56
2023/07/14 03:10:42;;;;;;;13.52;10.52;;;15.40;99.90;;;;;;5071685;28;20462;-56
2023/07/14 03:13:07;;;;;;;14.07;10.85;;;15.20;99.90;;;;;;5071763;28;20134;-55
2023/07/14 03:15:33;;;;;;;15.32;11.18;;;15.40;99.90;;;;;;5071693;28;20465;-55
2023/07/14 03:17:59;;;;;;;15.13;12.10;;;15.20;99.90;;;;;;5071493;28;20051;-55
2023/07/14 03:20:25;;;;;;;16.10;12.07;;;15.20;99.90;;;;;;5071426;28;20047;-56
2023/07/14 03:22:51;;;;;;;12.68;11.27;;;15.20;99.90;;;;;;5071416;28;20040;-55
2023/07/14 03:25:16;;;;;;;15.73;11.77;;;15.10;99.90;;;;;;5071560;28;20028;-55
2023/07/14 03:27:43;;;;;;;17.88;12.27;;;15.10;99.90;;;;;;5071730;28;20043;-55
2023/07/14 03:30:10;;;;;;;12.20;10.25;;;15.10;99.90;;;;;;5071272;28;20079;-55
2023/07/14 03:32:35;;;;;;;18.10;11.85;;;15.10;99.90;;;;;;5071563;28;20033;-55
2023/07/14 03:35:01;;;;;;;16.98;12.70;;;15.00;99.90;;;;;;5070150;28;20143;-56
2023/07/14 03:37:26;;;;;;;13.77;10.43;;;15.00;99.90;;;;;;5069591;28;20045;-55
2023/07/14 03:39:52;;;;;;;23.60;12.43;;;15.00;99.90;;;;;;5071769;28;20391;-56
2023/07/14 03:42:18;;;;;;;15.98;11.45;;;15.00;99.90;;;;;;5071417;28;20467;-55
2023/07/14 03:44:43;;;;;;;13.23;10.60;;;15.00;99.90;;;;;;5071497;28;20037;-55
2023/07/14 03:47:09;;;;;;;14.10;11.50;;;15.00;99.90;;;;;;5071152;28;20082;-55
2023/07/14 03:49:35;;;;;;;16.70;10.77;;;14.90;99.90;;;;;;5067727;28;20497;-56
2023/07/14 03:52:00;;;;;;;14.60;12.27;;;14.90;99.90;;;;;;5060882;28;20037;-56
2023/07/14 03:54:26;;;;;;;16.30;11.07;;;15.00;99.90;;;;;;5071161;28;20056;-56
2023/07/14 03:56:54;;;;;;;13.93;10.27;;;14.90;99.90;;;;;;5071676;28;20453;-55
2023/07/14 03:59:20;;;;;;;15.73;11.48;;;14.90;99.90;;;;;;5071341;28;20048;-55
2023/07/14 04:01:47;;;;;;;18.38;11.10;;;14.90;99.90;;;;;;5057526;28;20029;-55
2023/07/14 04:04:13;;;;;;;11.60;10.40;;;15.00;99.90;;;;;;5070333;28;20373;-55
2023/07/14 04:06:39;;;;;;;16.20;10.93;;;14.90;99.90;;;;;;5069758;28;20047;-56
2023/07/14 04:09:06;;;;;;;12.98;10.52;;;15.00;99.90;;;;;;5071139;28;20037;-55
2023/07/14 04:11:35;;;;;;;14.32;9.95;;;15.00;99.90;;;;;;5071244;28;20039;-55
2023/07/14 04:14:02;;;;;;;17.45;11.60;;;14.90;99.90;;;;;;5071600;28;20090;-55
2023/07/14 04:16:28;;;;;;;17.33;10.07;;;14.90;99.90;;;;;;5074143;28;20683;-56
2023/07/14 04:18:53;;;;;;;16.45;9.45;;;14.90;99.90;;;;;;5074562;28;20041;-55
2023/07/14 04:21:24;;;;;;;14.27;10.13;;;15.00;99.90;;;;;;5074751;28;20439;-56
2023/07/14 04:23:51;;;;;;;14.10;9.70;;;15.00;99.90;;;;;;5073414;28;20036;-55
2023/07/14 04:26:17;;;;;;;12.32;10.35;;;15.00;99.90;;;;;;5073319;28;20040;-55
2023/07/14 04:28:43;;;;;;;13.88;9.43;;;15.00;99.90;;;;;;5074439;28;20338;-55
2023/07/14 04:31:08;;;;;;;15.30;9.65;;;15.10;99.90;;;;;;5074442;28;20040;-56
2023/07/14 04:33:34;;;;;;;13.88;9.23;;;15.00;99.90;;;;;;5074561;28;20102;-55
2023/07/14 04:35:59;;;;;;;13.93;9.05;;;15.10;99.90;;;;;;5074564;28;20105;-55
2023/07/14 04:38:25;;;;;;;16.25;9.30;;;15.10;99.90;;;;;;5074500;28;20074;-55
2023/07/14 04:40:51;;;;;;;15.27;9.65;;;15.00;99.90;;;;;;5073842;28;20039;-55
2023/07/14 04:43:18;;;;;;;15.82;9.50;;;15.10;99.90;;;;;;5072887;28;20487;-55
2023/07/14 04:45:45;;;;;;;17.17;8.60;;;15.20;99.90;;;;;;5074282;28;20104;-55
2023/07/14 04:48:21;;;;;;;8.77;7.82;;;15.20;99.90;;;;;;5074373;28;20063;-56
2023/07/14 04:50:47;;;;;;;14.27;8.93;;;15.30;99.90;;;;;;5060830;28;20430;-55
2023/07/14 04:53:14;;;;;;;12.00;7.70;;;15.30;99.90;;;;;;5073872;28;20040;-56
2023/07/14 04:55:42;;;;;;;13.45;8.32;;;15.30;99.90;;;;;;5073891;28;20100;-56
2023/07/14 04:58:09;;;;;;;12.82;8.38;;;15.40;99.90;;;;;;5074058;28;20097;-55
2023/07/14 05:00:37;;;;;;;13.00;7.75;;;15.50;99.90;;;;;;5073891;28;20557;-56
2023/07/14 05:03:03;;;;;;;11.55;7.25;;;15.40;99.90;;;;;;5073761;28;20120;-55
2023/07/14 05:05:29;;;;;;;12.38;7.55;;;15.50;99.90;;;;;;5074076;28;20128;-55
2023/07/14 05:07:55;;;;;;;14.75;7.90;;;15.50;99.90;;;;;;5073927;28;20342;-56
2023/07/14 05:10:23;;;;;;;10.55;7.40;;;15.50;99.90;;;;;;5073749;28;20036;-56
2023/07/14 05:12:54;;;;;;;13.37;7.30;;;15.60;99.90;;;;;;5073770;28;20063;-56
2023/07/14 05:15:20;;;;;;;10.30;7.43;;;15.60;99.90;;;;;;5073308;28;20726;-56
2023/07/14 05:17:48;;;;;;;9.45;7.30;;;15.60;99.90;;;;;;5073793;28;20119;-56
2023/07/14 05:20:16;;;;;;;10.35;7.43;;;15.80;99.90;;;;;;5073588;28;20028;-56
2023/07/14 05:22:47;;;;;;;12.43;6.80;;;15.80;99.90;;;;;;5073582;28;20036;-55
2023/07/14 05:25:15;;;;;;;11.77;7.05;;;15.80;99.90;;;;;;5073151;28;20035;-55
2023/07/14 05:27:43;;;;;;;9.80;7.70;;;15.90;99.90;;;;;;5073442;28;20063;-56
2023/07/14 05:30:12;;;;;;;10.48;7.32;;;15.90;99.90;;;;;;5073310;28;20048;-55
2023/07/14 05:32:38;;;;;;;11.25;6.93;;;16.00;99.90;;;;;;5073437;28;20028;-55
2023/07/14 05:35:04;;;;;;;13.85;7.15;;;16.10;99.90;;;;;;5072866;28;20125;-55
2023/07/14 05:37:30;;;;;;;16.35;7.55;;;16.10;99.90;;;;;;5073032;28;20086;-55
2023/07/14 05:39:55;;;;;;;12.90;6.82;;;16.20;99.90;;;;;;5072822;28;20041;-56
2023/07/14 05:42:21;;;;;;;14.13;6.78;;;16.30;99.90;;;;;;5072995;28;20024;-56
2023/07/14 05:44:46;;;;;;;9.80;6.85;;;16.40;99.90;;;;;;5073316;28;20048;-55
2023/07/14 05:47:14;;;;;;;15.43;6.50;;;16.40;99.90;;;;;;5072734;28;20111;-55
2023/07/14 05:49:39;;;;;;;9.60;6.15;;;16.50;99.90;;;;;;5068553;28;20072;-55
2023/07/14 05:52:09;;;;;;;14.23;6.28;;;16.60;99.90;;;;;;5063329;28;20440;-55
2023/07/14 05:54:35;;;;;;;14.00;6.50;;;16.60;99.90;;;;;;5072649;28;20121;-56
2023/07/14 05:57:01;;;;;;;10.30;5.30;;;16.80;99.90;;;;;;5072972;28;20475;-55
2023/07/14 05:59:27;;;;;;;10.52;6.05;;;16.80;99.90;;;;;;5072885;28;20036;-56
2023/07/14 06:01:53;;;;;;;12.35;5.85;;;17.00;99.90;;;;;;5072668;28;20040;-55
2023/07/14 06:04:19;;;;;;;9.95;5.47;;;17.10;99.90;;;;;;5072378;28;20250;-56
2023/07/14 06:06:45;;;;;;;10.63;5.22;;;17.20;99.90;;;;;;5072788;28;20040;-56
2023/07/14 06:09:13;;;;;;;12.65;5.90;;;17.20;99.90;;;;;;5072921;28;20041;-56
2023/07/14 06:11:39;;;;;;;15.63;5.00;;;17.30;99.90;;;;;;5072354;28;20107;-56
2023/07/14 06:14:05;;;;;;;12.52;5.50;;;17.50;99.90;;;;;;5072481;28;20483;-56
2023/07/14 06:16:31;;;;;;;13.25;5.03;;;17.60;99.90;;;;;;5072679;28;20124;-56
2023/07/14 06:18:56;;;;;;;10.63;5.15;;;17.80;99.90;;;;;;5072747;28;20037;-56
2023/07/14 06:21:22;;;;;;;9.95;5.03;;;17.80;99.90;;;;;;5072227;28;20486;-56
2023/07/14 06:23:47;;;;;;;8.73;4.50;;;18.00;99.90;;;;;;5071941;28;20043;-55
2023/07/14 06:26:14;;;;;;;9.77;4.97;;;18.10;99.90;;;;;;5072613;28;20043;-56
2023/07/14 06:28:41;;;;;;;11.32;5.05;;;18.30;99.90;;;;;;5072144;28;20034;-55
2023/07/14 06:31:07;;;;;;;14.13;5.15;;;18.50;99.90;;;;;;5072194;28;20478;-55
2023/07/14 06:33:33;;;;;;;10.30;4.72;;;18.50;99.90;;;;;;5072295;28;20048;-56
2023/07/14 06:36:00;;;;;;;9.77;4.80;;;18.70;99.90;;;;;;5072212;28;20093;-55
2023/07/14 06:38:28;;;;;;;10.95;5.28;;;18.80;99.90;;;;;;5071516;28;20059;-55
2023/07/14 06:41:01;;;;;;;8.88;4.45;;;18.90;99.90;;;;;;5072059;28;20038;-55
2023/07/14 06:43:31;;;;;;;12.82;4.65;;;19.10;99.90;;;;;;5072171;28;20071;-56
2023/07/14 06:45:58;;;;;;;9.65;4.38;;;19.10;99.90;;;;;;5072182;28;20037;-56
2023/07/14 06:48:27;;;;;;;9.93;4.43;;;19.20;99.90;;;;;;5072283;28;20047;-56
2023/07/14 06:50:53;;;;;;;12.48;5.00;;;19.40;99.90;;;;;;5057984;28;20052;-56
2023/07/14 06:53:19;;;;;;;11.98;4.40;;;19.40;99.90;;;;;;5072285;28;20051;-56
2023/07/14 06:55:46;;;;;;;13.63;3.80;;;19.60;99.90;;;;;;5071605;28;20139;-56
2023/07/14 06:58:12;;;;;;;10.95;3.95;;;19.90;99.90;;;;;;5071876;28;20105;-56
2023/07/14 07:00:38;;;;;;;11.35;3.97;;;20.00;99.90;;;;;;5071993;28;20045;-56
2023/07/14 07:03:05;;;;;;;7.60;3.50;;;20.10;99.90;;;;;;5071822;28;20379;-56
2023/07/14 07:05:37;;;;;;;6.05;3.45;;;20.30;99.90;;;;;;5072376;28;20048;-56
2023/07/14 07:08:04;;;;;;;7.97;3.30;;;20.60;99.90;;;;;;5071981;28;20047;-56
2023/07/14 07:10:33;;;;;;;12.18;4.47;;;20.70;99.90;;;;;;5071846;28;20040;-56
2023/07/14 07:12:58;;;;;;;8.85;3.33;;;20.70;99.90;;;;;;5071541;28;20040;-56
2023/07/14 07:15:24;;;;;;;8.18;3.40;;;20.90;99.90;;;;;;5071800;28;20036;-56
2023/07/14 07:17:50;;;;;;;8.18;3.50;;;21.00;99.90;;;;;;5071942;28;20120;-56
2023/07/14 07:20:15;;;;;;;12.20;4.15;;;21.10;99.90;;;;;;5070668;28;20036;-56
2023/07/14 07:22:41;;;;;;;8.45;3.30;;;21.30;99.90;;;;;;5071833;28;20056;-56
2023/07/14 07:25:08;;;;;;;8.95;3.38;;;21.40;99.90;;;;;;5072016;28;20459;-56
2023/07/14 07:27:34;;;;;;;11.65;3.58;;;21.40;99.90;;;;;;5071684;28;20063;-56
2023/07/14 07:30:00;;;;;;;13.38;3.90;;;21.50;99.90;;;;;;5071799;28;20041;-56
2023/07/14 07:32:27;;;;;;;7.80;3.33;;;21.70;99.90;;;;;;5071505;28;20103;-56
2023/07/14 07:34:53;;;;;;;10.88;3.90;;;21.90;99.90;;;;;;5071684;28;20068;-56
2023/07/14 07:37:19;;;;;;;7.60;3.42;;;22.10;99.90;;;;;;5071763;28;20083;-56
2023/07/14 07:39:45;;;;;;;6.28;3.20;;;22.20;99.90;;;;;;5071856;28;20075;-55
2023/07/14 07:42:11;;;;;;;11.93;3.08;;;22.20;99.90;;;;;;5071819;28;20044;-56
2023/07/14 07:44:37;;;;;;;7.70;3.53;;;22.30;99.90;;;;;;5071531;28;20036;-57
2023/07/14 07:47:02;;;;;;;8.60;4.10;;;22.30;99.90;;;;;;5071736;28;20414;-56
2023/07/14 07:49:29;;;;;;;7.22;3.80;;;22.50;99.90;;;;;;5068978;28;21576;-56
2023/07/14 07:51:54;;;;;;;7.13;3.22;;;22.60;99.90;;;;;;5063775;28;20032;-57
2023/07/14 07:54:21;;;;;;;7.55;3.50;;;22.80;99.90;;;;;;5074927;28;20062;-56
2023/07/14 07:56:48;;;;;;;5.25;3.15;;;22.90;99.90;;;;;;5075355;28;20072;-57
2023/07/14 07:59:17;;;;;;;8.43;3.55;;;23.00;99.90;;;;;;5075406;28;20044;-57
2023/07/14 08:01:43;;;;;;;7.70;4.22;;;23.40;99.90;;;;;;5075032;28;20036;-56
2023/07/14 08:04:10;;;;;;;10.75;5.13;;;23.30;99.90;;;;;;5075124;28;20052;-57
2023/07/14 08:06:39;;;;;;;8.10;4.90;;;23.20;99.90;;;;;;5074401;28;20043;-57
2023/07/14 08:09:06;;;;;;;10.88;5.28;;;23.50;99.90;;;;;;5074863;28;20036;-56
2023/07/14 08:11:32;;;;;;;8.77;5.22;;;23.80;99.90;;;;;;5075017;28;20041;-56
2023/07/14 08:14:01;;;;;;;8.73;4.95;;;24.00;99.90;;;;;;5075190;28;20086;-56
2023/07/14 08:16:27;;;;;;;8.55;5.35;;;24.40;99.90;;;;;;5074519;28;20479;-56
2023/07/14 08:18:53;;;;;;;12.73;5.05;;;24.30;99.90;;;;;;5074993;28;20042;-56
2023/07/14 08:21:18;;;;;;;10.40;5.22;;;24.50;99.90;;;;;;5074961;28;20044;-56
2023/07/14 08:23:44;;;;;;;10.15;4.40;;;24.70;99.90;;;;;;5074807;28;20109;-58
2023/07/14 08:26:10;;;;;;;10.90;4.30;;;24.90;99.90;;;;;;5074885;28;20417;-57
2023/07/14 08:28:36;;;;;;;7.57;3.55;;;25.00;99.90;;;;;;5074817;28;20170;-57
2023/07/14 08:31:06;;;;;;;9.60;4.13;;;25.00;99.90;;;;;;5074338;28;20141;-56
2023/07/14 08:33:32;;;;;;;7.88;3.78;;;25.20;99.90;;;;;;5072986;28;20068;-57
2023/07/14 08:36:00;;;;;;;8.15;3.65;;;25.40;99.90;;;;;;5074457;28;20045;-57
2023/07/14 08:38:27;;;;;;;6.32;4.00;;;25.40;99.90;;;;;;5074542;28;20040;-57
2023/07/14 08:41:11;;;;;;;6.63;3.78;;;25.50;99.90;;;;;;5060610;28;20041;-57
2023/07/14 08:43:54;;;;;;;6.65;3.90;;;25.30;99.90;;;;;;5074257;28;20063;-57
2023/07/14 08:46:53;;;;;;;6.45;3.47;;;25.30;99.90;;;;;;5074654;28;20368;-57
2023/07/14 08:49:27;;;;;;;7.88;2.85;;;24.90;99.90;;;;;;5031950;28;20068;-57
2023/07/14 08:51:57;;;;;;;4.40;2.10;;;24.80;99.90;;;;;;5032089;28;20381;-57
2023/07/14 08:54:26;;;;;;;4.25;2.08;;;24.50;99.90;;;;;;5031902;28;20061;-57
2023/07/14 08:56:52;;;;;;;2.60;2.00;;;24.20;99.90;;;;;;5031874;28;20057;-57
2023/07/14 08:59:34;;;;;;;4.25;2.20;;;24.00;99.90;;;;;;5031818;28;20038;-57
2023/07/14 09:02:02;;;;;;;7.20;2.22;;;24.20;99.90;;;;;;5031358;28;20054;-57
2023/07/14 09:04:36;;;;;;;5.20;2.10;;;24.60;99.90;;;;;;5031367;28;20053;-57
2023/07/14 09:07:01;;;;;;;6.97;2.15;;;24.70;99.90;;;;;;5031884;28;20060;-57
2023/07/14 09:09:33;;;;;;;4.53;2.40;;;24.90;99.90;;;;;;5031760;28;20037;-57
2023/07/14 09:12:23;;;;;;;5.97;2.45;;;25.10;99.90;;;;;;5031651;28;20415;-57
2023/07/14 09:15:16;;;;;;;5.05;2.20;;;25.30;99.90;;;;;;5048072;28;20208;-57
2023/07/14 09:17:50;;;;;;;14.60;2.50;;;25.40;99.90;;;;;;5030023;28;20057;-56
2023/07/14 09:20:39;;;;;;;5.35;2.03;;;25.20;99.90;;;;;;5031547;28;20060;-57
2023/07/14 09:23:27;;;;;;;8.82;2.50;;;25.20;99.90;;;;;;4991919;28;20086;-66
2023/07/14 09:26:04;;;;;;;7.20;2.67;;;25.20;99.90;;;;;;5006844;28;20128;-65
2023/07/14 09:28:37;;;;;;;6.72;2.20;;;26.80;99.90;;;;;;5046770;28;20088;-66
2023/07/14 09:31:15;;;;;;;5.97;2.30;;;28.50;99.90;;;;;;5051022;28;20044;-66
2023/07/14 09:33:58;;;;;;;3.60;1.73;;;28.00;99.80;;;;;;5050878;28;20131;-66
2023/07/14 09:36:26;;;;;;;4.35;2.10;;;29.10;98.40;;;;;;5042543;28;20279;-66
2023/07/14 09:38:55;;;;;;;20.25;3.17;;;29.80;98.10;;;;;;5050628;28;20075;-67
2023/07/14 09:41:25;;;;;;;7.07;1.85;;;28.80;97.50;;;;;;5041583;28;20085;-67
2023/07/14 09:43:57;;;;;;;2.15;1.70;;;29.70;97.80;;;;;;5050389;28;20041;-66
2023/07/14 09:46:22;;;;;;;12.07;2.08;;;30.50;96.60;;;;;;5050830;28;20087;-67
2023/07/14 09:49:00;;;;;;;3.47;2.08;;;30.60;96.70;;;;;;5039060;28;20033;-66
2023/07/14 09:51:26;;;;;;;3.70;2.13;;;30.10;96.80;;;;;;5035925;28;20107;-66
2023/07/14 09:54:04;;;;;;;4.75;2.55;;;29.20;97.10;;;;;;5050626;28;20061;-65
2023/07/14 09:56:35;;;;;;;3.25;1.80;;;28.60;97.00;;;;;;5050260;28;20440;-65
2023/07/14 09:59:07;;;;;;;6.85;2.22;;;29.90;98.50;;;;;;5051897;28;20044;-66
2023/07/14 10:01:33;;;;;;;3.85;2.05;;;29.60;97.50;;;;;;5072420;28;20039;-66
2023/07/14 10:04:15;;;;;;;7.05;2.45;;;29.00;97.60;;;;;;5071129;28;20163;-67
2023/07/14 10:06:41;;;;;;;7.15;2.22;;;30.40;97.20;;;;;;5070883;28;20043;-66
2023/07/14 10:09:13;;;;;;;4.28;1.92;;;31.10;96.10;;;;;;5072341;28;20033;-67
2023/07/14 10:11:42;;;;;;;4.07;2.30;;;31.60;95.90;;;;;;5102284;28;20041;-67
2023/07/14 10:14:27;;;;;;;5.68;1.90;;;32.40;96.50;;;;;;5071593;28;20071;-67
2023/07/14 10:16:58;;;;;;;4.63;1.77;;;32.80;94.60;;;;;;5072100;28;20040;-68
2023/07/14 10:19:37;;;;;;;3.13;1.77;;;32.80;93.90;;;;;;5072241;28;20445;-65
2023/07/14 10:22:11;;;;;;;4.70;1.98;;;32.80;94.00;;;;;;5065311;28;20098;-64
2023/07/14 10:24:37;;;;;;;4.22;1.95;;;32.80;93.50;;;;;;5072338;28;20033;-66
2023/07/14 10:27:23;;;;;;;4.80;1.98;;;33.50;93.90;;;;;;5072048;28;20135;-66
2023/07/14 10:29:57;;;;;;;4.80;2.00;;;33.20;93.60;;;;;;5071441;28;20459;-66
2023/07/14 10:32:47;;;;;;;3.90;2.22;;;32.40;93.10;;;;;;5071895;28;20040;-65
2023/07/14 10:35:30;;;;;;;5.72;2.40;;;32.90;93.70;;;;;;5071572;28;20065;-66
2023/07/14 10:38:05;;;;;;;4.88;2.25;;;33.20;93.00;;;;;;5071841;28;20055;-66
2023/07/14 10:40:36;;;;;;;3.97;2.28;;;33.70;93.20;;;;;;5071969;28;20044;-66
2023/07/14 10:43:33;;;;;;;5.00;2.63;;;33.70;92.70;;;;;;5071708;28;20123;-65
2023/07/14 10:46:08;;;;;;;4.28;2.45;;;33.30;92.40;;;;;;5029486;28;20057;-66
2023/07/14 10:48:47;;;;;;;4.15;2.33;;;32.60;92.60;;;;;;5029586;28;20047;-65
2023/07/14 10:51:40;;;;;;;2.42;1.92;;;32.10;92.70;;;;;;5029487;28;20045;-65
2023/07/14 10:54:12;;;;;;;2.67;1.90;;;32.20;93.00;;;;;;5029388;28;20058;-66
2023/07/14 10:56:46;;;;;;;4.38;2.15;;;32.20;92.60;;;;;;5028998;28;20565;-65
2023/07/14 10:59:34;;;;;;;3.95;2.58;;;31.50;93.20;;;;;;5012777;28;20056;-67
2023/07/14 11:02:11;;;;;;;4.57;2.17;;;30.50;93.20;;;;;;5029482;28;20046;-67
2023/07/14 11:04:52;;;;;;;7.50;2.30;;;29.90;93.90;;;;;;5028987;28;20049;-67
2023/07/14 11:07:29;;;;;;;4.13;2.30;;;29.70;94.30;;;;;;5029335;28;20038;-66
2023/07/14 11:09:56;;;;;;;6.32;2.22;;;30.00;94.10;;;;;;5029042;28;20104;-66
2023/07/14 11:12:36;;;;;;;4.22;2.20;;;29.60;94.80;;;;;;5029199;28;20484;-66
2023/07/14 11:15:16;;;;;;;3.28;2.00;;;29.10;95.00;;;;;;5028949;28;20120;-66
2023/07/14 11:18:07;;;;;;;5.35;2.60;;;28.70;95.20;;;;;;5029297;28;20120;-66
2023/07/14 11:20:39;;;;;;;4.97;2.50;;;28.90;95.60;;;;;;5029238;28;20042;-67
2023/07/14 11:23:17;;;;;;;5.35;2.60;;;28.90;96.00;;;;;;5043542;28;20053;-67
2023/07/14 11:25:55;;;;;;;4.15;2.20;;;28.60;95.90;;;;;;5061928;28;20037;-67
2023/07/14 11:28:47;;;;;;;5.88;2.42;;;28.30;96.00;;;;;;5075294;28;20507;-67
2023/07/14 11:31:27;;;;;;;2.88;1.95;;;28.60;96.40;;;;;;5075340;28;20078;-67
2023/07/14 11:34:30;;;;;;;11.32;3.00;;;29.10;96.00;;;;;;5074977;28;20430;-66
2023/07/14 11:37:11;;;;;;;7.35;2.85;;;29.20;95.30;;;;;;5075061;28;20044;-67
2023/07/14 11:39:49;;;;;;;7.05;2.40;;;28.90;94.80;;;;;;5075005;28;20082;-66
2023/07/14 11:42:20;;;;;;;6.45;2.78;;;28.20;95.40;;;;;;5074813;28;20040;-67
2023/07/14 11:44:48;;;;;;;11.25;2.72;;;28.40;95.80;;;;;;5075176;28;20047;-66
2023/07/14 11:47:38;;;;;;;7.30;2.42;;;28.90;95.40;;;;;;5074742;28;20478;-67
2023/07/14 11:50:15;;;;;;;5.15;2.47;;;28.90;96.10;;;;;;5067584;28;20420;-68
2023/07/14 11:52:55;;;;;;;3.03;1.95;;;28.70;95.10;;;;;;5069824;28;20037;-67
2023/07/14 11:55:23;;;;;;;5.88;3.08;;;29.00;95.80;;;;;;5074662;28;20536;-66
2023/07/14 11:57:52;;;;;;;3.92;2.20;;;28.50;95.00;;;;;;5074346;28;20093;-67
2023/07/14 12:00:24;;;;;;;6.88;2.33;;;28.10;95.60;;;;;;5074752;28;20390;-66
2023/07/14 12:02:59;;;;;;;3.13;2.00;;;28.60;95.60;;;;;;5074156;28;20090;-66
2023/07/14 12:05:30;;;;;;;3.63;2.25;;;28.40;95.50;;;;;;5074534;28;20368;-66
2023/07/14 12:08:04;;;;;;;5.97;2.47;;;28.30;96.10;;;;;;5074828;28;20449;-66
2023/07/14 12:10:40;;;;;;;5.10;2.33;;;28.20;96.30;;;;;;5061356;28;20037;-66
2023/07/14 12:13:27;;;;;;;9.18;2.67;;;29.00;96.90;;;;;;5066995;28;20048;-67
2023/07/14 12:15:55;;;;;;;4.97;2.40;;;28.80;95.40;;;;;;5061819;28;20035;-66
2023/07/14 12:18:37;;;;;;;4.45;2.72;;;28.40;95.20;;;;;;5074504;28;20040;-66
2023/07/14 12:21:15;;;;;;;3.80;2.40;;;28.40;96.20;;;;;;5062280;28;20033;-66
2023/07/14 12:23:56;;;;;;;5.47;2.50;;;27.90;95.40;;;;;;5074195;28;20048;-65
2023/07/14 12:26:50;;;;;;;4.72;2.30;;;28.10;96.50;;;;;;5074552;28;20039;-66
2023/07/14 12:29:18;;;;;;;4.90;2.78;;;27.80;97.00;;;;;;5073389;28;20103;-66
2023/07/14 12:31:52;;;;;;;3.25;2.25;;;27.10;96.50;;;;;;5074798;28;20064;-65
2023/07/14 12:34:19;;;;;;;6.25;2.70;;;26.90;96.70;;;;;;5074178;28;20040;-66
2023/07/14 12:36:45;;;;;;;4.10;2.40;;;27.00;97.40;;;;;;5073610;28;20032;-64
2023/07/14 12:39:11;;;;;;;4.63;2.55;;;27.00;97.60;;;;;;5074114;28;20263;-66
2023/07/14 12:41:40;;;;;;;7.63;2.65;;;26.80;97.40;;;;;;5074140;28;20490;-66
2023/07/14 12:44:19;;;;;;;4.53;2.78;;;26.60;97.80;;;;;;5073661;28;20544;-67
2023/07/14 12:46:46;;;;;;;7.03;2.47;;;26.40;97.80;;;;;;5074187;28;20072;-67
2023/07/14 12:49:18;;;;;;;4.38;2.58;;;26.00;97.70;;;;;;5073393;28;20029;-66
2023/07/14 12:51:44;;;;;;;6.22;2.35;;;25.90;98.20;;;;;;5061221;28;20368;-66
2023/07/14 12:54:24;;;;;;;5.32;2.90;;;25.70;98.10;;;;;;5073758;28;20047;-66
2023/07/14 12:56:49;;;;;;;5.75;2.30;;;25.80;98.10;;;;;;5060688;28;20554;-66
2023/07/14 12:59:17;;;;;;;5.90;3.10;;;25.80;98.50;;;;;;5073555;28;20119;-67
2023/07/14 13:01:44;;;;;;;5.65;2.90;;;25.90;98.10;;;;;;5073194;28;20040;-66